Time;durP1;ratioP1;P1;durP2;ratioP2;P2;SDS_P1;SDS_P2;PMS_P1;PMS_P2;Temp;Humidity;BMP_temperature;BMP_pressure;BME280_temperature;BME280_humidity;BME280_pressure;Samples;Min_cycle;Max_cycle;Signal;HPM_P1;HPM_P2
2023/01/10 00:00:09;;;;;;;5.10;3.00;;;8.00;99.90;;;;;;5055664;28;20494;-68
2023/01/10 00:02:36;;;;;;;4.20;2.87;;;8.00;99.90;;;;;;5055421;28;20516;-67
2023/01/10 00:05:03;;;;;;;3.83;2.40;;;8.00;99.90;;;;;;5054904;28;20483;-70
2023/01/10 00:07:31;;;;;;;4.93;2.63;;;8.00;99.90;;;;;;5055000;28;20911;-67
2023/01/10 00:09:59;;;;;;;3.77;2.97;;;8.00;99.90;;;;;;5054239;28;20470;-69
2023/01/10 00:15:25;;;;;;;4.47;3.50;;;7.90;99.90;;;;;;5014065;28;20445;-68
2023/01/10 00:17:52;;;;;;;4.57;3.33;;;7.90;99.90;;;;;;5013494;28;20480;-69
2023/01/10 00:20:19;;;;;;;3.57;2.97;;;7.80;99.90;;;;;;5031305;28;20833;-67
2023/01/10 00:22:46;;;;;;;3.70;3.20;;;7.80;99.90;;;;;;5054407;28;20475;-69
2023/01/10 00:25:15;;;;;;;5.20;3.57;;;7.70;99.90;;;;;;5054502;28;20489;-68
2023/01/10 00:27:44;;;;;;;4.50;3.30;;;7.70;99.90;;;;;;5054660;28;20490;-69
2023/01/10 00:30:13;;;;;;;5.57;3.87;;;7.70;99.90;;;;;;5054508;28;20562;-68
2023/01/10 00:32:41;;;;;;;4.80;3.53;;;7.70;99.90;;;;;;5054479;28;20486;-67
2023/01/10 00:35:10;;;;;;;4.03;3.20;;;7.70;99.90;;;;;;5053494;28;20512;-68
2023/01/10 00:37:38;;;;;;;4.20;3.37;;;7.60;99.90;;;;;;5054526;28;20524;-68
2023/01/10 00:40:08;;;;;;;6.60;4.00;;;7.60;99.90;;;;;;5054384;28;20455;-68
2023/01/10 00:45:21;;;;;;;4.17;3.27;;;7.60;99.90;;;;;;5055664;28;20486;-68
2023/01/10 00:47:48;;;;;;;5.37;4.00;;;7.60;99.90;;;;;;5055205;28;20473;-67
2023/01/10 00:50:16;;;;;;;4.30;3.33;;;7.60;99.90;;;;;;5057366;28;20455;-67
2023/01/10 00:52:42;;;;;;;5.13;3.53;;;7.50;99.90;;;;;;5058904;28;20541;-69
2023/01/10 00:55:10;;;;;;;4.87;3.20;;;7.50;99.90;;;;;;5055710;28;20546;-69
2023/01/10 00:57:38;;;;;;;6.90;3.70;;;7.50;99.90;;;;;;5055835;28;20782;-68
2023/01/10 01:00:08;;;;;;;6.00;3.40;;;7.40;99.90;;;;;;5056320;28;20531;-69
2023/01/10 01:02:34;;;;;;;4.47;3.77;;;7.50;99.90;;;;;;5056633;28;20465;-69
2023/01/10 01:05:01;;;;;;;4.80;3.97;;;7.50;99.90;;;;;;5055751;28;20475;-67
2023/01/10 01:07:28;;;;;;;5.73;3.90;;;7.50;99.90;;;;;;5055473;28;20481;-69
2023/01/10 01:12:40;;;;;;;4.30;3.80;;;7.50;99.90;;;;;;5056602;28;20427;-68
2023/01/10 01:15:08;;;;;;;5.43;3.80;;;7.50;99.90;;;;;;5055869;28;20462;-68
2023/01/10 01:17:35;;;;;;;6.67;3.93;;;7.50;99.90;;;;;;5055282;28;20455;-68
2023/01/10 01:20:02;;;;;;;4.10;3.70;;;7.50;99.90;;;;;;5055594;28;20483;-68
2023/01/10 01:22:29;;;;;;;3.80;3.30;;;7.40;99.90;;;;;;5055952;28;20581;-69
2023/01/10 01:24:56;;;;;;;4.30;3.50;;;7.40;99.90;;;;;;5055657;28;20536;-68
2023/01/10 01:27:23;;;;;;;4.67;3.47;;;7.40;99.90;;;;;;5055128;28;20810;-68
2023/01/10 01:29:51;;;;;;;5.53;3.90;;;7.30;99.90;;;;;;5055448;28;20559;-68
2023/01/10 01:32:18;;;;;;;4.77;3.70;;;7.30;99.90;;;;;;5055173;28;20460;-68
2023/01/10 01:34:44;;;;;;;5.00;3.63;;;7.30;99.90;;;;;;5056135;28;20450;-69
2023/01/10 01:37:11;;;;;;;4.57;3.47;;;7.30;99.90;;;;;;5055362;28;20830;-68
2023/01/10 01:39:38;;;;;;;5.37;4.13;;;7.30;99.90;;;;;;5055294;28;20451;-68
2023/01/10 01:42:05;;;;;;;4.90;3.43;;;7.20;99.90;;;;;;5055116;28;20459;-68
2023/01/10 01:44:36;;;;;;;4.50;3.30;;;7.20;99.90;;;;;;5054567;28;20485;-68
2023/01/10 01:47:07;;;;;;;5.33;3.37;;;7.20;99.90;;;;;;5058421;28;20459;-68
2023/01/10 01:49:37;;;;;;;4.07;3.37;;;7.20;99.90;;;;;;5058213;28;20444;-68
2023/01/10 01:52:08;;;;;;;4.33;3.40;;;7.20;99.90;;;;;;5058355;28;20853;-69
2023/01/10 01:54:36;;;;;;;5.07;3.60;;;7.20;99.90;;;;;;5058835;28;20473;-69
2023/01/10 01:57:06;;;;;;;3.90;2.80;;;7.20;99.90;;;;;;5058054;28;20956;-69
2023/01/10 01:59:38;;;;;;;3.73;2.93;;;7.20;99.90;;;;;;5059630;28;20443;-69
2023/01/10 02:02:11;;;;;;;5.67;4.50;;;7.20;99.90;;;;;;5058821;28;20486;-68
2023/01/10 02:04:44;;;;;;;3.90;3.20;;;7.20;99.90;;;;;;5058948;28;20444;-68
2023/01/10 02:07:12;;;;;;;3.67;3.20;;;7.20;99.90;;;;;;5059578;28;20774;-68
2023/01/10 02:09:43;;;;;;;4.90;3.87;;;7.20;99.90;;;;;;5059037;28;20459;-69
2023/01/10 02:12:12;;;;;;;4.47;3.40;;;7.10;99.90;;;;;;5058758;28;20440;-69
2023/01/10 02:14:40;;;;;;;4.27;3.50;;;7.10;99.90;;;;;;5058997;28;20454;-68
2023/01/10 02:17:11;;;;;;;4.57;3.43;;;7.00;99.90;;;;;;5059086;28;20456;-67
2023/01/10 02:19:49;;;;;;;4.03;3.60;;;7.00;99.90;;;;;;5060048;28;20526;-68
2023/01/10 02:22:51;;;;;;;10.23;4.23;;;7.00;99.90;;;;;;5059046;28;20489;-69
2023/01/10 02:25:46;;;;;;;5.97;4.03;;;6.90;99.90;;;;;;5057721;28;20514;-69
2023/01/10 02:28:54;;;;;;;6.63;4.07;;;6.90;99.90;;;;;;5058935;28;20432;-68
2023/01/10 02:31:44;;;;;;;5.00;4.13;;;6.90;99.90;;;;;;5057821;28;20813;-68
2023/01/10 02:34:20;;;;;;;5.50;4.57;;;6.80;99.90;;;;;;5057707;28;20526;-68
2023/01/10 02:36:55;;;;;;;9.33;5.10;;;6.80;99.90;;;;;;5057893;28;20443;-68
2023/01/10 02:39:29;;;;;;;8.03;4.50;;;6.80;99.90;;;;;;5058278;28;20439;-68
2023/01/10 02:42:00;;;;;;;7.57;4.63;;;6.80;99.90;;;;;;5057499;28;20986;-68
2023/01/10 02:44:34;;;;;;;4.87;3.83;;;6.80;99.90;;;;;;5057145;28;20443;-67
2023/01/10 02:47:03;;;;;;;5.63;4.37;;;6.80;99.90;;;;;;5057492;28;20577;-69
2023/01/10 02:49:42;;;;;;;7.77;4.80;;;6.80;99.90;;;;;;5058237;28;20478;-69
2023/01/10 02:52:09;;;;;;;5.20;4.30;;;6.80;99.90;;;;;;5057589;28;20530;-68
2023/01/10 02:54:36;;;;;;;4.50;4.03;;;6.80;99.90;;;;;;5057045;28;20452;-69
2023/01/10 02:57:29;;;;;;;5.90;4.30;;;6.80;99.90;;;;;;5056486;28;20796;-69
2023/01/10 03:00:26;;;;;;;7.13;4.43;;;6.80;99.90;;;;;;5054897;28;20459;-68
2023/01/10 03:03:06;;;;;;;10.30;4.23;;;6.80;99.90;;;;;;5057034;28;20545;-68
2023/01/10 03:05:52;;;;;;;7.63;4.43;;;6.90;99.90;;;;;;5057223;28;20463;-68
2023/01/10 03:08:30;;;;;;;6.30;4.10;;;6.80;99.90;;;;;;5058141;28;20833;-68
2023/01/10 03:10:59;;;;;;;7.23;4.43;;;6.90;99.90;;;;;;5058578;28;20450;-68
2023/01/10 03:13:31;;;;;;;6.90;4.27;;;6.90;99.90;;;;;;5058095;28;20451;-68
2023/01/10 03:16:00;;;;;;;5.57;3.90;;;6.90;99.90;;;;;;5058091;28;20622;-68
2023/01/10 03:18:32;;;;;;;6.10;4.13;;;6.90;99.90;;;;;;5056931;28;20494;-68
2023/01/10 03:21:04;;;;;;;5.23;3.63;;;6.90;99.90;;;;;;5056770;28;20454;-69
2023/01/10 03:23:33;;;;;;;7.70;5.00;;;6.80;99.90;;;;;;5056698;28;20474;-69
2023/01/10 03:26:00;;;;;;;5.50;4.20;;;6.90;99.90;;;;;;5056903;28;20493;-69
2023/01/10 03:28:33;;;;;;;8.40;4.57;;;6.90;99.90;;;;;;5056633;28;20465;-68
2023/01/10 03:31:06;;;;;;;8.80;4.87;;;6.90;99.90;;;;;;5056404;28;20535;-67
2023/01/10 03:33:34;;;;;;;6.37;4.40;;;6.90;99.90;;;;;;5056499;28;20955;-69
2023/01/10 03:36:15;;;;;;;6.23;4.40;;;6.90;99.90;;;;;;5057184;28;20494;-67
2023/01/10 03:38:46;;;;;;;6.80;4.33;;;6.90;99.90;;;;;;5057014;28;20444;-68
2023/01/10 03:41:18;;;;;;;6.60;4.50;;;6.90;99.90;;;;;;5056842;28;20439;-68
2023/01/10 03:46:40;;;;;;;8.20;5.17;;;7.00;99.90;;;;;;5056402;28;20462;-67
2023/01/10 03:49:09;;;;;;;5.77;4.30;;;7.00;99.90;;;;;;5056232;28;20443;-68
2023/01/10 03:51:39;;;;;;;9.03;4.93;;;7.00;99.90;;;;;;5056361;28;20469;-68
2023/01/10 03:54:06;;;;;;;6.67;4.27;;;7.00;99.90;;;;;;5056237;28;20465;-69
2023/01/10 03:56:44;;;;;;;6.10;3.97;;;7.00;99.90;;;;;;5056084;28;20451;-68
2023/01/10 03:59:11;;;;;;;4.90;4.37;;;7.00;99.90;;;;;;5056433;28;20439;-69
2023/01/10 04:01:38;;;;;;;9.20;4.70;;;7.00;99.90;;;;;;5056558;28;20826;-68
2023/01/10 04:04:05;;;;;;;6.10;4.70;;;7.00;99.90;;;;;;5056310;28;20455;-67
2023/01/10 04:06:32;;;;;;;4.77;4.03;;;7.00;99.90;;;;;;5056131;28;20788;-68
2023/01/10 04:09:00;;;;;;;5.87;4.40;;;7.00;99.90;;;;;;5056485;28;20455;-68
2023/01/10 04:11:27;;;;;;;7.00;4.70;;;7.00;99.90;;;;;;5056371;28;20943;-67
2023/01/10 04:13:54;;;;;;;5.43;4.80;;;7.00;99.90;;;;;;5056206;28;20550;-67
2023/01/10 04:16:21;;;;;;;10.27;4.80;;;7.00;99.90;;;;;;5056722;28;20541;-68
2023/01/10 04:18:48;;;;;;;7.03;4.53;;;7.00;99.90;;;;;;5055744;28;20546;-67
2023/01/10 04:21:15;;;;;;;9.60;6.50;;;7.00;99.90;;;;;;5056191;28;20513;-68
2023/01/10 04:23:42;;;;;;;8.57;4.90;;;7.00;99.90;;;;;;5055581;28;20577;-68
2023/01/10 04:26:10;;;;;;;9.30;5.17;;;7.00;99.90;;;;;;5055880;28;20589;-68
2023/01/10 04:28:37;;;;;;;10.57;4.73;;;7.00;99.90;;;;;;5055611;28;20461;-68
2023/01/10 04:31:04;;;;;;;11.23;5.20;;;7.00;99.90;;;;;;5055693;28;20916;-68
2023/01/10 04:33:32;;;;;;;9.30;5.23;;;7.00;99.90;;;;;;5055816;28;20465;-68
2023/01/10 04:35:59;;;;;;;7.10;5.30;;;7.10;99.90;;;;;;5055721;28;20550;-68
2023/01/10 04:38:25;;;;;;;8.70;5.43;;;7.10;99.90;;;;;;5055727;28;20539;-68
2023/01/10 04:40:53;;;;;;;8.20;5.50;;;7.10;99.90;;;;;;5055480;28;20470;-68
2023/01/10 04:43:22;;;;;;;7.27;6.37;;;7.00;99.90;;;;;;5056300;28;20455;-68
2023/01/10 04:45:49;;;;;;;16.13;7.13;;;7.00;99.90;;;;;;5056716;28;20475;-68
2023/01/10 04:48:15;;;;;;;13.53;6.47;;;7.00;99.90;;;;;;5056806;28;20450;-68
2023/01/10 04:50:42;;;;;;;11.20;5.87;;;7.00;99.90;;;;;;5056133;28;20546;-69
2023/01/10 04:53:09;;;;;;;12.00;6.30;;;6.90;99.90;;;;;;5055883;28;20555;-69
2023/01/10 04:55:36;;;;;;;15.27;6.60;;;6.90;99.90;;;;;;5055941;28;20485;-69
2023/01/10 04:58:03;;;;;;;10.37;6.80;;;6.90;99.90;;;;;;5055664;28;20498;-68
2023/01/10 05:00:31;;;;;;;8.93;5.70;;;6.90;99.90;;;;;;5056983;28;20466;-68
2023/01/10 05:02:58;;;;;;;18.07;6.10;;;6.90;99.90;;;;;;5056687;28;20542;-67
2023/01/10 05:05:25;;;;;;;12.33;6.60;;;7.00;99.90;;;;;;5056538;28;20510;-68
2023/01/10 05:07:52;;;;;;;14.80;6.20;;;7.00;99.90;;;;;;5056676;28;20805;-68
2023/01/10 05:10:19;;;;;;;14.37;6.80;;;7.00;99.90;;;;;;5057453;28;20521;-67
2023/01/10 05:12:46;;;;;;;13.37;5.87;;;7.00;99.90;;;;;;5057880;28;20490;-68
2023/01/10 05:15:14;;;;;;;7.43;5.73;;;7.00;99.90;;;;;;5057297;28;20465;-69
2023/01/10 05:17:42;;;;;;;12.77;6.90;;;6.90;99.90;;;;;;5057838;28;20531;-67
2023/01/10 05:20:12;;;;;;;12.20;5.93;;;6.90;99.90;;;;;;5058666;28;20491;-68
2023/01/10 05:22:39;;;;;;;13.77;6.83;;;6.90;99.90;;;;;;5061357;28;20486;-69
2023/01/10 05:25:06;;;;;;;12.90;6.50;;;6.90;99.90;;;;;;5061581;28;20493;-68
2023/01/10 05:27:33;;;;;;;13.47;7.20;;;6.90;99.90;;;;;;5060116;28;20484;-68
2023/01/10 05:30:00;;;;;;;11.73;6.93;;;6.90;99.90;;;;;;5059307;28;20455;-68
2023/01/10 05:32:29;;;;;;;13.73;7.83;;;6.80;99.90;;;;;;5059133;28;20488;-68
2023/01/10 05:34:57;;;;;;;12.77;6.50;;;6.80;99.90;;;;;;5059339;28;20467;-69
2023/01/10 05:37:24;;;;;;;14.57;7.03;;;6.80;99.90;;;;;;5059454;28;20494;-68
2023/01/10 05:39:51;;;;;;;13.63;6.47;;;6.90;99.90;;;;;;5059586;28;20944;-68
2023/01/10 05:42:18;;;;;;;10.50;6.73;;;6.90;99.90;;;;;;5059387;28;20931;-68
2023/01/10 05:44:44;;;;;;;15.07;6.70;;;6.90;99.90;;;;;;5058996;28;20458;-67
2023/01/10 05:47:11;;;;;;;9.60;6.27;;;7.00;99.90;;;;;;5058956;28;20474;-68
2023/01/10 05:49:38;;;;;;;18.30;7.27;;;7.00;99.90;;;;;;5059188;28;20469;-68
2023/01/10 05:52:06;;;;;;;14.20;7.40;;;7.00;99.90;;;;;;5059400;28;20551;-69
2023/01/10 05:54:33;;;;;;;14.23;7.43;;;7.10;99.90;;;;;;5058683;28;20613;-69
2023/01/10 05:57:00;;;;;;;19.83;7.67;;;7.10;99.90;;;;;;5058864;28;20614;-69
2023/01/10 05:59:27;;;;;;;12.63;6.47;;;7.10;99.90;;;;;;5058603;28;20510;-69
2023/01/10 06:01:54;;;;;;;16.23;7.00;;;7.10;99.90;;;;;;5058994;28;20847;-68
2023/01/10 06:04:21;;;;;;;21.97;6.70;;;7.10;99.90;;;;;;5058842;28;20542;-67
2023/01/10 06:06:48;;;;;;;11.33;6.13;;;7.10;99.90;;;;;;5058553;28;20475;-68
2023/01/10 06:09:16;;;;;;;11.93;7.27;;;7.10;99.90;;;;;;5058510;28;20554;-69
2023/01/10 06:11:43;;;;;;;11.90;8.00;;;7.20;99.90;;;;;;5059134;28;20550;-68
2023/01/10 06:14:09;;;;;;;10.37;6.80;;;7.10;99.90;;;;;;5059035;28;20455;-68
2023/01/10 06:16:42;;;;;;;13.03;7.10;;;7.20;99.90;;;;;;5058928;28;20447;-70
2023/01/10 06:19:09;;;;;;;15.83;8.40;;;7.10;99.90;;;;;;5058693;28;20991;-69
2023/01/10 06:21:36;;;;;;;12.47;7.53;;;7.10;99.90;;;;;;5057551;28;20465;-68
2023/01/10 06:24:03;;;;;;;13.13;7.80;;;7.10;99.90;;;;;;5058080;28;20453;-67
2023/01/10 06:26:31;;;;;;;13.50;7.47;;;7.10;99.90;;;;;;5057516;28;20533;-69
2023/01/10 06:28:58;;;;;;;13.60;6.83;;;7.10;99.90;;;;;;5058076;28;20783;-68
2023/01/10 06:31:25;;;;;;;15.30;7.47;;;7.10;99.90;;;;;;5057570;28;20467;-69
2023/01/10 06:33:52;;;;;;;14.17;7.70;;;7.10;99.90;;;;;;5057500;28;20550;-68
2023/01/10 06:36:20;;;;;;;15.43;7.30;;;7.10;99.90;;;;;;5057483;28;20664;-69
2023/01/10 06:38:47;;;;;;;15.03;7.87;;;7.00;99.90;;;;;;5058097;28;20462;-69
2023/01/10 06:41:13;;;;;;;14.23;7.63;;;7.00;99.90;;;;;;5058122;28;20542;-69
2023/01/10 06:43:44;;;;;;;10.37;6.90;;;7.10;99.90;;;;;;5059345;28;20861;-68
2023/01/10 06:46:11;;;;;;;14.23;6.80;;;7.10;99.90;;;;;;5058940;28;20742;-68
2023/01/10 06:48:38;;;;;;;17.33;8.07;;;7.10;99.90;;;;;;5059445;28;20458;-69
2023/01/10 06:51:05;;;;;;;13.37;7.53;;;7.10;99.90;;;;;;5058886;28;20486;-68
2023/01/10 06:53:32;;;;;;;13.23;7.10;;;7.10;99.90;;;;;;5058154;28;20454;-69
2023/01/10 06:55:59;;;;;;;15.07;7.23;;;7.20;99.90;;;;;;5059085;28;20491;-68
2023/01/10 06:58:26;;;;;;;18.53;6.70;;;7.20;99.90;;;;;;5058834;28;20538;-68
2023/01/10 07:00:54;;;;;;;11.10;6.93;;;7.20;99.90;;;;;;5058647;28;20483;-68
2023/01/10 07:03:21;;;;;;;18.03;8.50;;;7.20;99.90;;;;;;5058081;28;20455;-68
2023/01/10 07:05:48;;;;;;;13.47;7.10;;;7.20;99.90;;;;;;5058173;28;20459;-68
2023/01/10 07:08:15;;;;;;;16.23;7.07;;;7.20;99.90;;;;;;5058384;28;20519;-68
2023/01/10 07:10:42;;;;;;;15.70;7.83;;;7.30;99.90;;;;;;5057993;28;20463;-69
2023/01/10 07:13:09;;;;;;;18.30;8.27;;;7.30;99.90;;;;;;5058351;28;20545;-68
2023/01/10 07:15:36;;;;;;;17.63;8.47;;;7.30;99.90;;;;;;5058483;28;20553;-69
2023/01/10 07:18:05;;;;;;;21.50;8.10;;;7.30;99.90;;;;;;5058508;28;20544;-70
2023/01/10 07:20:31;;;;;;;16.40;8.23;;;7.30;99.90;;;;;;5057256;28;20470;-68
2023/01/10 07:23:00;;;;;;;12.57;8.20;;;7.30;99.90;;;;;;5056150;28;20501;-68
2023/01/10 07:25:28;;;;;;;14.37;8.43;;;7.30;99.90;;;;;;5056976;28;20861;-68
2023/01/10 07:27:55;;;;;;;16.90;8.40;;;7.20;99.90;;;;;;5056934;28;20479;-68
2023/01/10 07:30:23;;;;;;;17.63;8.70;;;7.20;99.90;;;;;;5057365;28;20451;-69
2023/01/10 07:32:54;;;;;;;16.80;9.03;;;7.20;99.90;;;;;;5057766;28;20546;-69
2023/01/10 07:35:22;;;;;;;12.83;8.30;;;7.20;99.90;;;;;;5058047;28;20451;-68
2023/01/10 07:37:49;;;;;;;15.47;7.73;;;7.20;99.90;;;;;;5057754;28;20455;-69
2023/01/10 07:40:16;;;;;;;16.77;8.70;;;7.20;99.90;;;;;;5057196;28;20482;-68
2023/01/10 07:42:43;;;;;;;16.63;8.13;;;7.20;99.90;;;;;;5055971;28;20542;-68
2023/01/10 07:45:11;;;;;;;12.27;7.70;;;7.20;99.90;;;;;;5056142;28;20455;-69
2023/01/10 07:47:38;;;;;;;18.60;8.80;;;7.20;99.90;;;;;;5055604;28;20515;-69
2023/01/10 07:50:06;;;;;;;16.60;8.40;;;7.20;99.90;;;;;;5055662;28;20511;-69
2023/01/10 07:52:34;;;;;;;14.93;8.40;;;7.30;99.90;;;;;;5056003;28;20532;-68
2023/01/10 07:55:01;;;;;;;13.13;7.93;;;7.20;99.90;;;;;;5055958;28;20542;-69
2023/01/10 07:57:28;;;;;;;12.60;8.67;;;7.20;99.90;;;;;;5055700;28;20629;-69
2023/01/10 07:59:55;;;;;;;13.00;8.67;;;7.20;99.90;;;;;;5055466;28;20455;-68
2023/01/10 08:02:22;;;;;;;17.80;8.40;;;7.20;99.90;;;;;;5055831;28;20455;-68
2023/01/10 08:04:48;;;;;;;13.20;8.10;;;7.20;99.90;;;;;;5056113;28;20860;-69
2023/01/10 08:07:15;;;;;;;16.73;8.53;;;7.20;99.90;;;;;;5056339;28;20479;-67
2023/01/10 08:09:44;;;;;;;11.53;7.53;;;7.20;99.90;;;;;;5056604;28;20526;-68
2023/01/10 08:12:10;;;;;;;17.27;8.37;;;7.20;99.90;;;;;;5055898;28;20554;-69
2023/01/10 08:14:37;;;;;;;17.07;8.33;;;7.20;99.90;;;;;;5056248;28;20465;-69
2023/01/10 08:17:04;;;;;;;16.50;9.40;;;7.20;99.90;;;;;;5056741;28;20517;-68
2023/01/10 08:19:31;;;;;;;23.17;9.17;;;7.20;99.90;;;;;;5056028;28;20542;-73
2023/01/10 08:21:59;;;;;;;17.43;9.10;;;7.30;99.90;;;;;;5055625;28;20497;-68
2023/01/10 08:24:26;;;;;;;13.50;8.30;;;7.30;99.90;;;;;;5056111;28;20485;-69
2023/01/10 08:26:57;;;;;;;14.40;8.87;;;7.30;99.90;;;;;;5056446;28;20544;-70
2023/01/10 08:29:24;;;;;;;20.67;9.67;;;7.40;99.90;;;;;;5056764;28;20506;-68
2023/01/10 08:31:51;;;;;;;16.20;9.00;;;7.40;99.90;;;;;;5055396;28;20463;-69
2023/01/10 08:34:18;;;;;;;14.57;8.43;;;7.40;99.90;;;;;;5056012;28;20455;-68
2023/01/10 08:36:45;;;;;;;19.20;8.70;;;7.40;99.90;;;;;;5056932;28;20546;-70
2023/01/10 08:39:12;;;;;;;17.93;9.97;;;7.50;99.90;;;;;;5055506;28;20485;-68
2023/01/10 08:41:41;;;;;;;23.90;9.80;;;7.40;99.90;;;;;;5058441;28;20490;-69
2023/01/10 08:44:10;;;;;;;14.87;9.20;;;7.40;99.90;;;;;;5059567;28;20459;-70
2023/01/10 08:46:38;;;;;;;11.80;7.97;;;7.40;99.90;;;;;;5059458;28;20884;-70
2023/01/10 08:49:05;;;;;;;16.83;8.73;;;7.40;99.90;;;;;;5058988;28;20458;-70
2023/01/10 08:51:32;;;;;;;15.80;8.23;;;7.40;99.90;;;;;;5056087;28;20908;-68
2023/01/10 08:53:59;;;;;;;21.30;8.27;;;7.40;99.90;;;;;;5056377;28;20451;-69
2023/01/10 08:56:26;;;;;;;15.40;8.30;;;7.40;99.90;;;;;;5054685;28;20524;-69
2023/01/10 08:58:53;;;;;;;15.60;8.23;;;7.40;99.90;;;;;;5055187;28;20522;-69
2023/01/10 09:01:21;;;;;;;17.60;8.20;;;7.40;99.90;;;;;;5055595;28;20814;-69
2023/01/10 09:03:48;;;;;;;13.80;8.80;;;7.40;99.90;;;;;;5055659;28;20838;-69
2023/01/10 09:06:15;;;;;;;16.87;8.70;;;7.50;99.90;;;;;;5055516;28;20538;-69
2023/01/10 09:08:42;;;;;;;13.23;7.97;;;7.50;99.90;;;;;;5054924;28;20961;-69
2023/01/10 09:11:09;;;;;;;12.10;8.10;;;7.50;99.90;;;;;;5055036;28;20796;-69
2023/01/10 09:13:36;;;;;;;15.63;8.57;;;7.50;99.90;;;;;;5055126;28;20469;-69
2023/01/10 09:16:03;;;;;;;13.93;8.67;;;7.50;99.90;;;;;;5055382;28;20458;-70
2023/01/10 09:18:32;;;;;;;9.37;7.40;;;7.40;99.90;;;;;;5055157;28;20477;-69
2023/01/10 09:21:00;;;;;;;16.83;9.07;;;7.50;99.90;;;;;;5055805;28;20463;-69
2023/01/10 09:23:27;;;;;;;15.10;8.40;;;7.50;99.90;;;;;;5055135;28;20483;-68
2023/01/10 09:25:56;;;;;;;17.27;8.30;;;7.50;99.90;;;;;;5055429;28;20487;-70
2023/01/10 09:28:24;;;;;;;16.90;8.23;;;7.50;99.90;;;;;;5055802;28;20997;-68
2023/01/10 09:30:56;;;;;;;16.90;7.30;;;7.50;99.90;;;;;;5055276;28;20958;-69
2023/01/10 09:33:23;;;;;;;16.37;7.63;;;7.50;99.90;;;;;;5055126;28;20447;-69
2023/01/10 09:35:51;;;;;;;13.13;8.03;;;7.50;99.90;;;;;;5055239;28;20455;-69
2023/01/10 09:38:21;;;;;;;15.97;8.20;;;7.50;99.90;;;;;;5054915;28;20527;-70
2023/01/10 09:41:01;;;;;;;16.50;8.17;;;7.50;99.90;;;;;;5071335;28;20501;-70
2023/01/10 09:43:38;;;;;;;12.07;7.10;;;7.50;99.90;;;;;;5069234;28;20489;-69
2023/01/10 09:46:12;;;;;;;13.07;7.23;;;7.50;99.90;;;;;;5054937;28;20462;-68
2023/01/10 09:48:49;;;;;;;23.17;8.10;;;7.40;99.90;;;;;;5054984;28;20474;-69
2023/01/10 09:51:32;;;;;;;17.53;7.97;;;7.40;99.90;;;;;;5054945;28;20457;-69
2023/01/10 09:54:02;;;;;;;16.70;8.13;;;7.40;99.90;;;;;;5054689;28;20436;-69
2023/01/10 09:56:30;;;;;;;15.73;7.43;;;7.40;99.90;;;;;;5054481;28;20899;-69
2023/01/10 09:59:01;;;;;;;11.40;7.13;;;7.40;99.90;;;;;;5054820;28;20482;-69
2023/01/10 10:01:35;;;;;;;31.00;7.10;;;7.50;99.90;;;;;;5054593;28;20469;-69
2023/01/10 10:04:15;;;;;;;12.43;6.50;;;7.50;99.90;;;;;;5054812;28;20545;-69
2023/01/10 10:06:43;;;;;;;18.83;8.67;;;7.50;99.90;;;;;;5056549;28;20439;-68
2023/01/10 10:09:13;;;;;;;10.93;6.80;;;7.40;99.90;;;;;;5058493;28;20504;-70
2023/01/10 10:11:54;;;;;;;17.13;7.83;;;7.40;99.90;;;;;;5058235;28;20546;-69
2023/01/10 10:14:38;;;;;;;12.57;6.47;;;7.40;99.90;;;;;;5058735;28;20454;-69
2023/01/10 10:17:20;;;;;;;12.03;7.30;;;7.30;99.90;;;;;;5058386;28;20443;-69
2023/01/10 10:19:58;;;;;;;15.23;8.00;;;7.30;99.90;;;;;;5058572;28;20530;-69
2023/01/10 10:22:37;;;;;;;25.93;8.77;;;7.30;99.90;;;;;;5058262;28;20586;-67
2023/01/10 10:25:17;;;;;;;16.07;7.50;;;7.40;99.90;;;;;;5058598;28;20471;-69
2023/01/10 10:27:56;;;;;;;17.03;7.40;;;7.50;99.90;;;;;;5059167;28;20998;-70
2023/01/10 10:30:35;;;;;;;15.40;7.53;;;7.50;99.90;;;;;;5058564;28;20780;-69
2023/01/10 10:33:14;;;;;;;13.30;8.40;;;7.50;99.90;;;;;;5058400;28;20807;-69
2023/01/10 10:35:45;;;;;;;15.33;7.20;;;7.50;99.90;;;;;;5058553;28;20848;-69
2023/01/10 10:38:19;;;;;;;12.67;6.97;;;7.60;99.90;;;;;;5059322;28;20465;-69
2023/01/10 10:40:48;;;;;;;10.53;6.30;;;7.70;99.90;;;;;;5059194;28;20436;-69
2023/01/10 10:43:20;;;;;;;18.13;6.77;;;7.70;99.90;;;;;;5058050;28;20465;-70
2023/01/10 10:45:52;;;;;;;13.70;5.70;;;7.70;99.90;;;;;;5058228;28;20810;-69
2023/01/10 10:48:24;;;;;;;14.07;6.27;;;7.80;99.90;;;;;;5057636;28;20463;-70
2023/01/10 10:51:00;;;;;;;7.10;5.53;;;7.70;99.90;;;;;;5057456;28;20527;-69
2023/01/10 10:53:28;;;;;;;22.40;6.00;;;7.70;99.90;;;;;;5057708;28;20518;-69
2023/01/10 10:55:56;;;;;;;16.30;6.67;;;7.80;99.90;;;;;;5057510;28;20538;-70
2023/01/10 10:58:24;;;;;;;12.77;5.70;;;7.80;99.90;;;;;;5057318;28;20483;-69
2023/01/10 11:00:53;;;;;;;12.07;5.43;;;7.90;99.90;;;;;;5057084;28;20597;-69
2023/01/10 11:03:30;;;;;;;11.63;5.03;;;8.00;99.90;;;;;;5057195;28;20459;-68
2023/01/10 11:05:59;;;;;;;9.90;5.20;;;8.00;99.90;;;;;;5056895;28;20891;-70
2023/01/10 11:08:28;;;;;;;18.73;5.00;;;8.00;99.90;;;;;;5057086;28;21002;-69
2023/01/10 11:10:57;;;;;;;11.30;5.03;;;8.10;99.90;;;;;;5057178;28;20455;-69
2023/01/10 11:13:35;;;;;;;12.73;5.23;;;8.10;99.90;;;;;;5057617;28;20536;-68
2023/01/10 11:16:05;;;;;;;14.50;6.27;;;8.20;99.90;;;;;;5057293;28;20622;-69
2023/01/10 11:18:33;;;;;;;13.43;6.20;;;8.20;99.90;;;;;;5056837;28;20452;-69
2023/01/10 11:21:03;;;;;;;17.47;5.23;;;8.30;99.90;;;;;;5058179;28;20465;-69
2023/01/10 11:23:43;;;;;;;10.23;5.57;;;8.40;99.90;;;;;;5058106;28;20570;-70
2023/01/10 11:26:22;;;;;;;15.13;5.70;;;8.60;99.90;;;;;;5057891;28;20515;-69
2023/01/10 11:28:50;;;;;;;10.00;4.77;;;8.80;99.90;;;;;;5057489;28;20474;-69
2023/01/10 11:31:27;;;;;;;14.83;4.93;;;8.90;99.90;;;;;;5057896;28;20451;-68
2023/01/10 11:33:55;;;;;;;10.73;4.70;;;9.00;99.90;;;;;;5058055;28;20465;-69
2023/01/10 11:36:22;;;;;;;11.10;4.70;;;9.10;99.90;;;;;;5058368;28;20534;-68
2023/01/10 11:38:59;;;;;;;13.50;5.00;;;9.20;99.90;;;;;;5058330;28;20553;-69
2023/01/10 11:41:30;;;;;;;12.63;4.60;;;9.30;99.90;;;;;;5057080;28;20530;-69
2023/01/10 11:44:16;;;;;;;12.57;5.20;;;9.20;99.90;;;;;;5056670;28;20446;-69
2023/01/10 11:46:44;;;;;;;13.60;5.43;;;9.20;99.90;;;;;;5057627;28;20444;-69
2023/01/10 11:49:18;;;;;;;9.40;4.13;;;9.10;99.90;;;;;;5057327;28;20570;-69
2023/01/10 11:51:48;;;;;;;18.07;5.67;;;9.00;99.90;;;;;;5057498;28;20493;-69
2023/01/10 11:54:21;;;;;;;12.80;4.93;;;8.90;99.90;;;;;;5056951;28;20455;-69
2023/01/10 11:56:56;;;;;;;8.90;4.60;;;8.90;99.90;;;;;;5056451;28;20450;-68
2023/01/10 11:59:23;;;;;;;9.90;4.70;;;8.90;99.90;;;;;;5056164;28;20546;-69
2023/01/10 12:01:57;;;;;;;9.47;4.60;;;8.80;99.90;;;;;;5055712;28;20451;-69
2023/01/10 12:04:26;;;;;;;8.40;5.83;;;8.80;99.90;;;;;;5055806;28;20959;-68
2023/01/10 12:06:55;;;;;;;8.70;4.97;;;8.80;99.90;;;;;;5055754;28;20542;-68
2023/01/10 12:09:42;;;;;;;14.67;5.40;;;8.80;99.90;;;;;;5055765;28;20570;-69
2023/01/10 12:12:17;;;;;;;9.37;5.57;;;8.90;99.90;;;;;;5056258;28;20454;-68
2023/01/10 12:14:44;;;;;;;11.07;5.03;;;8.90;99.90;;;;;;5056045;28;20451;-69
2023/01/10 12:17:19;;;;;;;13.70;5.33;;;8.90;99.90;;;;;;5056151;28;20455;-69
2023/01/10 12:19:46;;;;;;;12.30;4.47;;;9.30;99.90;;;;;;5056302;28;20802;-68
2023/01/10 12:22:15;;;;;;;14.23;4.47;;;10.00;99.90;;;;;;5055713;28;20582;-69
2023/01/10 12:24:48;;;;;;;12.77;4.30;;;10.50;99.90;;;;;;5056609;28;20857;-69
2023/01/10 12:27:18;;;;;;;7.03;3.23;;;11.20;99.90;;;;;;5057522;28;20453;-68
2023/01/10 12:29:50;;;;;;;9.17;3.73;;;11.90;99.90;;;;;;5055616;28;20566;-69
2023/01/10 12:32:22;;;;;;;10.67;4.10;;;11.90;99.90;;;;;;5056606;28;20497;-69
2023/01/10 12:34:54;;;;;;;8.27;3.87;;;12.00;99.90;;;;;;5056290;28;20531;-69
2023/01/10 12:37:30;;;;;;;13.13;5.10;;;12.00;99.90;;;;;;5056554;28;20499;-69
2023/01/10 12:40:04;;;;;;;6.47;3.50;;;11.80;99.90;;;;;;5056927;28;20538;-67
2023/01/10 12:45:38;;;;;;;10.33;4.20;;;11.10;99.90;;;;;;5055904;28;20430;-69
2023/01/10 12:48:14;;;;;;;15.40;4.40;;;10.60;99.90;;;;;;5055627;28;20530;-70
2023/01/10 12:50:44;;;;;;;8.67;3.70;;;10.40;99.90;;;;;;5055421;28;20450;-68
2023/01/10 12:53:19;;;;;;;7.53;3.50;;;10.20;99.90;;;;;;5055460;28;20549;-70
2023/01/10 12:55:48;;;;;;;16.80;3.10;;;10.10;99.90;;;;;;5055894;28;20482;-68
2023/01/10 12:58:20;;;;;;;6.90;2.97;;;10.00;99.90;;;;;;5056078;28;20460;-69
2023/01/10 13:00:51;;;;;;;7.50;3.10;;;9.80;99.90;;;;;;5056322;28;20509;-70
2023/01/10 13:03:21;;;;;;;13.23;3.40;;;9.70;99.90;;;;;;5055718;28;20526;-69
2023/01/10 13:05:50;;;;;;;8.07;2.83;;;9.50;99.90;;;;;;5056733;28;20484;-69
2023/01/10 13:08:21;;;;;;;9.50;3.73;;;9.40;99.90;;;;;;5057716;28;20455;-68
2023/01/10 13:10:52;;;;;;;6.70;3.43;;;9.20;99.90;;;;;;5057427;28;20453;-68
2023/01/10 13:13:29;;;;;;;8.33;3.20;;;9.20;99.90;;;;;;5057129;28;20534;-70
2023/01/10 13:16:19;;;;;;;7.00;3.00;;;9.10;99.90;;;;;;5057738;28;20782;-69
2023/01/10 13:19:01;;;;;;;6.30;2.80;;;9.10;99.90;;;;;;5057156;28;20519;-68